createdAt,value
2018-09-14T00:02:21.730Z,16.08
2018-09-14T00:04:50.776Z,16.09
2018-09-14T00:07:26.179Z,16.04
2018-09-14T00:09:55.588Z,16.00
2018-09-14T00:12:24.788Z,16.08
2018-09-14T00:14:54.039Z,15.93
2018-09-14T00:17:23.294Z,15.86
2018-09-14T00:19:52.684Z,15.92
2018-09-14T00:22:22.092Z,15.87
2018-09-14T00:24:51.311Z,15.78
2018-09-14T00:27:20.494Z,15.84
2018-09-14T00:29:49.388Z,15.98
2018-09-14T00:32:18.816Z,15.86
2018-09-14T00:34:48.349Z,15.61
2018-09-14T00:37:18.745Z,15.67
2018-09-14T00:39:48.159Z,15.74
2018-09-14T00:42:17.953Z,15.62
2018-09-14T00:44:47.548Z,15.65
2018-09-14T00:47:16.642Z,15.62
2018-09-14T00:49:45.681Z,15.76
2018-09-14T00:52:14.616Z,15.78
2018-09-14T00:54:44.029Z,15.85
2018-09-14T00:57:13.397Z,15.89
2018-09-14T00:59:42.438Z,15.90
2018-09-14T01:02:11.634Z,15.85
2018-09-14T01:04:40.800Z,15.98
2018-09-14T01:07:10.335Z,16.01
2018-09-14T01:09:39.799Z,16.10
2018-09-14T01:12:08.688Z,16.12
2018-09-14T01:14:37.561Z,16.08
2018-09-14T01:17:06.591Z,15.93
2018-09-14T01:19:35.556Z,15.96
2018-09-14T01:22:04.443Z,15.76
2018-09-14T01:24:33.710Z,15.64
2018-09-14T01:27:02.630Z,15.60
2018-09-14T01:29:31.541Z,15.65
2018-09-14T01:32:00.450Z,15.73
2018-09-14T01:34:29.329Z,15.73
2018-09-14T01:36:58.384Z,15.59
2018-09-14T01:39:27.269Z,15.65
2018-09-14T01:41:56.187Z,15.59
2018-09-14T01:44:26.000Z,15.47
2018-09-14T01:46:54.980Z,15.60
2018-09-14T01:49:23.847Z,15.60
2018-09-14T01:51:52.778Z,15.49
2018-09-14T01:54:21.828Z,15.45
2018-09-14T01:56:50.712Z,15.40
2018-09-14T01:59:19.639Z,15.40
2018-09-14T02:01:48.520Z,15.41
2018-09-14T02:04:17.412Z,15.42
2018-09-14T02:06:46.308Z,15.35
2018-09-14T02:09:15.291Z,15.37
2018-09-14T02:11:44.227Z,15.41
2018-09-14T02:14:13.180Z,15.41
2018-09-14T02:16:42.193Z,15.47
2018-09-14T02:19:11.052Z,15.44
2018-09-14T02:21:39.924Z,15.46
2018-09-14T02:24:08.814Z,15.43
2018-09-14T02:26:37.676Z,15.44
2018-09-14T02:29:06.579Z,15.43
2018-09-14T02:31:35.468Z,15.38
2018-09-14T02:34:04.371Z,15.39
2018-09-14T02:36:33.326Z,15.37
2018-09-14T02:39:02.448Z,15.41
2018-09-14T02:41:31.305Z,15.31
2018-09-14T02:44:00.184Z,15.13
2018-09-14T02:46:29.325Z,15.10
2018-09-14T02:48:58.189Z,15.09
2018-09-14T02:51:27.131Z,15.08
2018-09-14T02:53:56.113Z,15.08
2018-09-14T02:56:24.979Z,15.12
2018-09-14T02:58:54.068Z,15.07
2018-09-14T03:01:23.022Z,15.18
2018-09-14T03:03:51.893Z,15.09
2018-09-14T03:06:20.925Z,15.01
2018-09-14T03:08:49.839Z,14.99
2018-09-14T03:11:18.700Z,14.93
2018-09-14T03:13:47.573Z,14.95
2018-09-14T03:16:16.456Z,14.94
2018-09-14T03:18:45.454Z,14.93
2018-09-14T03:21:14.551Z,14.86
2018-09-14T03:23:44.038Z,14.88
2018-09-14T03:26:12.939Z,14.86
2018-09-14T03:28:41.834Z,14.96
2018-09-14T03:31:10.879Z,14.91
2018-09-14T03:33:39.788Z,14.86
2018-09-14T03:36:08.952Z,14.97
2018-09-14T03:38:38.022Z,14.98
2018-09-14T03:41:06.975Z,15.01
2018-09-14T03:43:35.946Z,15.06
2018-09-14T03:46:04.868Z,15.14
2018-09-14T03:48:33.743Z,15.10
2018-09-14T03:51:02.598Z,14.98
2018-09-14T03:53:31.528Z,15.00
2018-09-14T03:56:00.575Z,15.03
2018-09-14T03:58:29.554Z,15.11
2018-09-14T04:00:58.436Z,15.15
2018-09-14T04:03:27.316Z,15.20
2018-09-14T04:05:56.422Z,15.19
2018-09-14T04:08:25.294Z,15.16
2018-09-14T04:10:54.177Z,15.02
2018-09-14T04:13:23.109Z,15.02
2018-09-14T04:15:51.983Z,15.02
2018-09-14T04:18:20.985Z,15.09
2018-09-14T04:20:49.984Z,15.09
2018-09-14T04:23:18.885Z,15.01
2018-09-14T04:25:47.800Z,15.04
2018-09-14T04:28:16.775Z,15.13
2018-09-14T04:30:45.740Z,14.94
2018-09-14T04:33:14.623Z,15.01
2018-09-14T04:35:43.519Z,15.15
2018-09-14T04:38:12.552Z,15.16
2018-09-14T04:40:41.616Z,15.13
2018-09-14T04:43:10.509Z,15.15
2018-09-14T04:45:39.474Z,15.00
2018-09-14T04:48:08.388Z,15.01
2018-09-14T04:50:37.261Z,15.11
2018-09-14T04:53:06.597Z,15.06
2018-09-14T04:55:35.523Z,14.95
2018-09-14T04:58:04.862Z,14.99
2018-09-14T05:00:33.792Z,15.14
2018-09-14T05:03:03.258Z,15.22
2018-09-14T05:05:32.850Z,15.20
2018-09-14T05:08:01.923Z,15.35
2018-09-14T05:10:31.423Z,15.42
2018-09-14T05:13:01.161Z,15.48
2018-09-14T05:15:30.354Z,15.57
2018-09-14T05:18:01.528Z,15.58
2018-09-14T05:20:31.212Z,15.51
2018-09-14T05:23:02.270Z,15.58
2018-09-14T05:25:32.596Z,15.61
2018-09-14T05:28:01.785Z,15.70
2018-09-14T05:30:31.391Z,15.63
2018-09-14T05:33:00.617Z,15.72
2018-09-14T05:35:30.115Z,15.76
2018-09-14T05:37:59.319Z,15.78
2018-09-14T05:40:28.237Z,15.81
2018-09-14T05:42:57.880Z,15.76
2018-09-14T05:45:27.344Z,15.69
2018-09-14T05:47:56.636Z,15.71
2018-09-14T05:50:25.971Z,15.70
2018-09-14T05:52:55.005Z,15.76
2018-09-14T05:55:24.197Z,15.87
2018-09-14T05:57:53.463Z,15.96
2018-09-14T06:00:22.734Z,16.03
2018-09-14T06:02:51.964Z,16.01
2018-09-14T06:05:21.033Z,16.04
2018-09-14T06:07:50.079Z,16.01
2018-09-14T06:10:19.179Z,15.71
2018-09-14T06:12:48.220Z,15.67
2018-09-14T06:15:17.271Z,15.87
2018-09-14T06:17:47.579Z,15.98
2018-09-14T06:20:16.689Z,16.05
2018-09-14T06:22:45.836Z,16.01
2018-09-14T06:25:15.419Z,16.09
2018-09-14T06:27:44.626Z,16.18
2018-09-14T06:30:13.587Z,16.31
2018-09-14T06:32:42.712Z,16.37
2018-09-14T06:35:11.692Z,16.15
2018-09-14T06:37:40.833Z,16.20
2018-09-14T06:40:10.390Z,16.19
2018-09-14T06:42:39.502Z,15.88
2018-09-14T06:45:08.527Z,15.89
2018-09-14T06:47:37.540Z,15.77
2018-09-14T06:50:06.960Z,15.92
2018-09-14T06:52:36.298Z,15.98
2018-09-14T06:55:05.570Z,16.11
2018-09-14T06:57:34.738Z,16.32
2018-09-14T07:00:04.178Z,16.22
2018-09-14T07:02:33.673Z,16.22
2018-09-14T07:05:02.871Z,16.31
2018-09-14T07:07:32.137Z,16.36
2018-09-14T07:10:01.196Z,16.35
2018-09-14T07:12:30.247Z,16.36
2018-09-14T07:14:59.305Z,16.43
2018-09-14T07:17:28.580Z,16.33
2018-09-14T07:19:57.764Z,16.31
2018-09-14T07:22:26.960Z,16.25
2018-09-14T07:24:56.284Z,16.45
2018-09-14T07:27:25.345Z,16.59
2018-09-14T07:29:54.645Z,16.57
2018-09-14T07:32:23.874Z,16.79
2018-09-14T07:34:53.035Z,16.81
2018-09-14T07:37:22.120Z,16.72
2018-09-14T07:39:51.465Z,16.84
2018-09-14T07:42:20.384Z,17.06
2018-09-14T07:44:49.507Z,16.64
2018-09-14T07:47:18.534Z,16.61
2018-09-14T07:49:47.871Z,16.59
2018-09-14T07:52:17.115Z,16.62
2018-09-14T07:54:46.367Z,16.44
2018-09-14T07:57:15.394Z,16.42
2018-09-14T07:59:44.577Z,16.43
2018-09-14T08:02:13.634Z,16.44
2018-09-14T08:04:42.655Z,16.49
2018-09-14T08:07:11.692Z,16.64
2018-09-14T08:09:40.730Z,16.73
2018-09-14T08:12:09.753Z,16.52
2018-09-14T08:14:38.976Z,16.39
2018-09-14T08:17:08.441Z,16.41
2018-09-14T08:19:37.567Z,16.52
2018-09-14T08:22:06.645Z,16.47
2018-09-14T08:24:36.516Z,16.48
2018-09-14T08:27:05.955Z,16.54
2018-09-14T08:29:34.906Z,16.62
2018-09-14T08:32:04.127Z,16.81
2018-09-14T08:34:33.309Z,17.13
2018-09-14T08:37:02.579Z,17.27
2018-09-14T08:39:31.940Z,17.35
2018-09-14T08:42:00.827Z,17.06
2018-09-14T08:44:29.888Z,17.29
2018-09-14T08:46:59.168Z,17.50
2018-09-14T08:49:28.203Z,17.82
2018-09-14T08:51:57.163Z,18.14
2018-09-14T08:54:26.109Z,18.28
2018-09-14T08:56:55.408Z,18.72
2018-09-14T08:59:24.518Z,18.60
2018-09-14T09:01:53.441Z,18.16
2018-09-14T09:04:22.372Z,18.06
2018-09-14T09:06:51.448Z,18.35
2018-09-14T09:09:20.679Z,18.64
2018-09-14T09:11:49.950Z,19.09
2018-09-14T09:14:18.988Z,18.89
2018-09-14T09:16:48.003Z,19.06
2018-09-14T09:19:17.069Z,18.65
2018-09-14T09:21:46.020Z,18.31
2018-09-14T09:24:15.196Z,18.33
2018-09-14T09:26:44.184Z,18.72
2018-09-14T09:29:13.306Z,18.71
2018-09-14T09:31:42.358Z,18.86
2018-09-14T09:34:11.436Z,18.59
2018-09-14T09:36:40.683Z,19.26
2018-09-14T09:39:11.892Z,19.58
2018-09-14T09:41:42.136Z,19.44
2018-09-14T09:44:11.687Z,19.50
2018-09-14T09:46:41.194Z,19.57
2018-09-14T09:49:10.169Z,19.31
2018-09-14T09:51:39.244Z,19.39
2018-09-14T09:54:08.327Z,19.74
2018-09-14T09:56:37.485Z,19.89
2018-09-14T09:59:06.552Z,20.08
2018-09-14T10:01:38.951Z,20.24
2018-09-14T10:04:13.232Z,20.23
2018-09-14T10:06:42.263Z,19.80
2018-09-14T10:09:11.267Z,19.91
2018-09-14T10:11:40.562Z,19.61
2018-09-14T10:14:09.811Z,19.27
2018-09-14T10:16:38.858Z,19.48
2018-09-14T10:19:07.908Z,20.10
2018-09-14T10:21:36.908Z,20.46
2018-09-14T10:24:06.009Z,20.73
2018-09-14T10:26:35.234Z,20.65
2018-09-14T10:29:04.399Z,20.49
2018-09-14T10:31:33.424Z,20.60
2018-09-14T10:34:02.514Z,20.69
2018-09-14T10:36:31.521Z,20.68
2018-09-14T10:39:00.541Z,19.89
2018-09-14T10:41:29.604Z,19.48
2018-09-14T10:43:59.126Z,19.66
2018-09-14T10:46:28.314Z,20.06
2018-09-14T10:48:57.380Z,20.81
2018-09-14T10:51:26.463Z,20.74
2018-09-14T10:53:55.468Z,20.73
2018-09-14T10:56:24.698Z,20.29
2018-09-14T10:58:54.411Z,20.31
2018-09-14T11:01:23.513Z,20.61
2018-09-14T11:03:52.689Z,20.53
2018-09-14T11:06:21.689Z,21.48
2018-09-14T11:08:50.765Z,21.91
2018-09-14T11:11:20.149Z,21.83
2018-09-14T11:13:49.417Z,21.89
2018-09-14T11:16:18.420Z,21.44
2018-09-14T11:18:47.553Z,21.60
2018-09-14T11:21:16.883Z,21.68
2018-09-14T11:23:45.885Z,22.02
2018-09-14T11:26:15.003Z,22.16
2018-09-14T11:28:44.236Z,22.50
2018-09-14T11:31:13.566Z,21.98
2018-09-14T11:33:42.757Z,21.92
2018-09-14T11:36:11.990Z,21.89
2018-09-14T11:38:41.344Z,21.91
2018-09-14T11:41:10.330Z,21.65
2018-09-14T11:43:39.417Z,21.61
2018-09-14T11:46:08.915Z,21.59
2018-09-14T11:48:37.898Z,22.29
2018-09-14T11:51:06.979Z,22.69
2018-09-14T11:53:36.019Z,23.76
2018-09-14T11:56:05.241Z,24.24
2018-09-14T11:58:34.152Z,24.21
2018-09-14T12:01:03.242Z,24.00
2018-09-14T12:03:32.350Z,23.86
2018-09-14T12:06:01.779Z,24.47
2018-09-14T12:08:38.231Z,24.32
2018-09-14T12:11:08.125Z,24.59
2018-09-14T12:13:38.150Z,24.69
2018-09-14T12:16:07.322Z,24.70
2018-09-14T12:18:36.335Z,25.11
2018-09-14T12:21:05.473Z,24.40
2018-09-14T12:23:35.209Z,23.68
2018-09-14T12:26:04.610Z,23.12
2018-09-14T12:28:34.703Z,22.98
2018-09-14T12:31:04.634Z,23.68
2018-09-14T12:33:34.698Z,24.56
2018-09-14T12:36:04.597Z,24.55
2018-09-14T12:38:34.100Z,24.61
2018-09-14T12:41:03.465Z,24.27
2018-09-14T12:43:33.138Z,23.21
2018-09-14T12:46:02.893Z,22.49
2018-09-14T12:48:33.036Z,21.91
2018-09-14T12:51:02.990Z,21.77
2018-09-14T12:53:32.922Z,21.68
2018-09-14T12:56:02.260Z,21.91
2018-09-14T12:58:31.452Z,22.05
2018-09-14T13:01:01.231Z,22.67
2018-09-14T13:03:31.229Z,23.16
2018-09-14T13:06:01.397Z,23.31
2018-09-14T13:08:30.541Z,23.03
2018-09-14T13:11:00.798Z,22.94
2018-09-14T13:13:30.627Z,23.20
2018-09-14T13:15:59.961Z,23.91
2018-09-14T13:18:29.356Z,24.29
2018-09-14T13:20:59.483Z,24.73
2018-09-14T13:23:29.078Z,24.86
2018-09-14T13:25:58.843Z,24.89
2018-09-14T13:28:28.750Z,23.92
2018-09-14T13:30:58.331Z,23.34
2018-09-14T13:33:27.479Z,23.31
2018-09-14T13:35:56.690Z,23.53
2018-09-14T13:38:26.138Z,22.98
2018-09-14T13:40:55.061Z,23.00
2018-09-14T13:43:24.140Z,22.45
2018-09-14T13:45:53.558Z,22.35
2018-09-14T13:48:22.553Z,22.47
2018-09-14T13:50:51.667Z,22.47
2018-09-14T13:53:20.751Z,22.37
2018-09-14T13:55:49.817Z,22.45
2018-09-14T13:58:18.815Z,22.75
2018-09-14T14:00:47.895Z,22.62
2018-09-14T14:03:17.062Z,22.49
2018-09-14T14:05:46.179Z,22.43
2018-09-14T14:08:15.216Z,22.01
2018-09-14T14:10:44.227Z,21.96
2018-09-14T14:13:13.242Z,21.86
2018-09-14T14:15:42.706Z,21.99
2018-09-14T14:18:12.415Z,22.25
2018-09-14T14:20:41.845Z,22.64
2018-09-14T14:23:11.608Z,22.99
2018-09-14T14:25:40.809Z,22.60
2018-09-14T14:28:10.434Z,22.80
2018-09-14T14:30:47.058Z,23.43
2018-09-14T14:33:16.231Z,23.45
2018-09-14T14:35:45.257Z,24.28
2018-09-14T14:38:14.521Z,24.97
2018-09-14T14:40:43.571Z,25.34
2018-09-14T14:43:13.048Z,24.76
2018-09-14T14:45:42.710Z,23.58
2018-09-14T14:48:12.368Z,23.32
2018-09-14T14:50:41.977Z,22.33
2018-09-14T14:53:11.671Z,22.43
2018-09-14T14:55:41.547Z,23.02
2018-09-14T14:58:11.436Z,23.27
2018-09-14T15:00:41.153Z,23.55
2018-09-14T15:03:11.408Z,23.77
2018-09-14T15:05:41.463Z,24.16
2018-09-14T15:08:11.448Z,24.31
2018-09-14T15:10:41.838Z,23.83
2018-09-14T15:13:12.761Z,23.38
2018-09-14T15:15:42.558Z,23.18
2018-09-14T15:18:12.273Z,22.89
2018-09-14T15:20:41.952Z,23.02
2018-09-14T15:23:11.738Z,22.71
2018-09-14T15:25:41.627Z,22.68
2018-09-14T15:28:11.366Z,22.32
2018-09-14T15:30:41.285Z,22.31
2018-09-14T15:33:11.183Z,22.55
2018-09-14T15:35:41.321Z,22.46
2018-09-14T15:38:11.447Z,22.43
2018-09-14T15:40:41.920Z,22.48
2018-09-14T15:43:11.980Z,22.37
2018-09-14T15:45:41.451Z,22.16
2018-09-14T15:48:10.994Z,22.07
2018-09-14T15:50:40.582Z,21.91
2018-09-14T15:53:09.793Z,21.69
2018-09-14T15:55:39.610Z,21.85
2018-09-14T15:58:08.971Z,21.87
2018-09-14T16:00:38.416Z,22.03
2018-09-14T16:03:08.060Z,22.12
2018-09-14T16:05:38.569Z,22.04
2018-09-14T16:08:09.201Z,22.05
2018-09-14T16:10:39.436Z,22.10
2018-09-14T16:13:10.044Z,22.14
2018-09-14T16:15:40.534Z,21.99
2018-09-14T16:18:11.547Z,21.95
2018-09-14T16:20:41.717Z,22.03
2018-09-14T16:23:11.365Z,21.85
2018-09-14T16:25:41.122Z,21.82
2018-09-14T16:28:11.241Z,21.74
2018-09-14T16:30:41.199Z,21.57
2018-09-14T16:33:10.972Z,21.58
2018-09-14T16:35:41.076Z,21.38
2018-09-14T16:38:11.330Z,21.29
2018-09-14T16:40:41.043Z,21.23
2018-09-14T16:43:10.999Z,21.30
2018-09-14T16:45:40.686Z,21.33
2018-09-14T16:48:10.622Z,21.30
2018-09-14T16:50:40.309Z,21.24
2018-09-14T16:53:10.438Z,21.13
2018-09-14T16:55:40.633Z,21.16
2018-09-14T16:58:10.822Z,21.10
2018-09-14T17:00:40.843Z,21.00
2018-09-14T17:06:03.326Z,20.79
2018-09-14T17:08:33.005Z,20.54
2018-09-14T17:11:02.950Z,20.59
2018-09-14T17:13:32.934Z,20.34
2018-09-14T17:16:02.745Z,20.17
2018-09-14T17:18:32.470Z,20.19
2018-09-14T17:21:02.157Z,20.04
2018-09-14T17:23:32.017Z,20.08
2018-09-14T17:26:00.967Z,19.99
2018-09-14T17:28:30.696Z,19.83
2018-09-14T17:30:59.761Z,19.68
2018-09-14T17:33:29.303Z,19.75
2018-09-14T17:35:58.797Z,19.69
2018-09-14T17:38:28.327Z,19.44
2018-09-14T17:40:57.933Z,19.27
2018-09-14T17:43:27.905Z,19.26
2018-09-14T17:45:57.731Z,19.19
2018-09-14T17:48:27.502Z,19.20
2018-09-14T17:50:57.362Z,19.41
2018-09-14T17:53:27.376Z,19.28
2018-09-14T17:55:57.340Z,19.19
2018-09-14T17:58:27.489Z,19.36
2018-09-14T18:00:57.402Z,19.22
2018-09-14T18:03:26.707Z,19.11
2018-09-14T18:05:56.075Z,19.10
2018-09-14T18:08:25.257Z,19.33
2018-09-14T18:10:54.374Z,19.36
2018-09-14T18:13:23.291Z,19.47
2018-09-14T18:15:52.225Z,19.29
2018-09-14T18:18:21.141Z,19.23
2018-09-14T18:20:50.089Z,19.03
2018-09-14T18:23:19.249Z,19.00
2018-09-14T18:25:48.165Z,18.92
2018-09-14T18:28:17.078Z,18.86
2018-09-14T18:30:45.986Z,18.78
2018-09-14T18:33:15.010Z,18.80
2018-09-14T18:35:44.092Z,18.76
2018-09-14T18:38:13.001Z,18.72
2018-09-14T18:40:41.863Z,18.73
2018-09-14T18:43:10.883Z,18.72
2018-09-14T18:45:42.475Z,18.70
2018-09-14T18:48:11.389Z,18.68
2018-09-14T18:50:40.448Z,18.67
2018-09-14T18:53:09.717Z,18.67
2018-09-14T18:55:57.987Z,18.67
2018-09-14T18:58:28.345Z,18.67
2018-09-14T19:00:57.267Z,18.62
2018-09-14T19:03:26.187Z,18.58
2018-09-14T19:05:55.112Z,18.60
2018-09-14T19:08:23.979Z,18.57
2018-09-14T19:10:52.969Z,18.51
2018-09-14T19:13:21.998Z,18.55
2018-09-14T19:15:50.952Z,18.56
2018-09-14T19:18:19.880Z,18.51
2018-09-14T19:20:48.753Z,18.48
2018-09-14T19:23:17.727Z,18.48
2018-09-14T19:25:46.624Z,18.51
2018-09-14T19:28:15.628Z,18.51
2018-09-14T19:30:44.763Z,18.57
2018-09-14T19:33:13.744Z,18.59
2018-09-14T19:35:42.620Z,18.58
2018-09-14T19:38:11.532Z,18.52
2018-09-14T19:40:40.425Z,18.40
2018-09-14T19:43:09.532Z,18.39
2018-09-14T19:45:38.563Z,18.42
2018-09-14T19:48:07.453Z,18.48
2018-09-14T19:50:36.432Z,18.47
2018-09-14T19:53:05.404Z,18.45
2018-09-14T19:55:34.321Z,18.45
2018-09-14T19:58:03.248Z,18.45
2018-09-14T20:00:32.171Z,18.47
2018-09-14T20:03:01.076Z,18.41
2018-09-14T20:05:30.298Z,18.43
2018-09-14T20:07:59.339Z,18.41
2018-09-14T20:10:28.256Z,18.41
2018-09-14T20:12:57.301Z,18.36
2018-09-14T20:15:26.250Z,18.36
2018-09-14T20:17:55.212Z,18.38
2018-09-14T20:20:24.091Z,18.33
2018-09-14T20:22:53.067Z,18.30
2018-09-14T20:25:22.030Z,18.28
2018-09-14T20:27:51.046Z,18.25
2018-09-14T20:30:20.151Z,18.13
2018-09-14T20:32:49.071Z,18.03
2018-09-14T20:35:18.495Z,17.97
2018-09-14T20:37:47.453Z,18.05
2018-09-14T20:40:16.371Z,18.05
2018-09-14T20:42:45.279Z,17.97
2018-09-14T20:45:14.139Z,17.97
2018-09-14T20:47:43.088Z,18.00
2018-09-14T20:50:12.178Z,17.97
2018-09-14T20:52:41.309Z,18.03
2018-09-14T20:55:13.184Z,17.95
2018-09-14T20:57:42.052Z,17.92
2018-09-14T21:00:11.084Z,17.92
2018-09-14T21:02:39.968Z,17.90
2018-09-14T21:05:08.920Z,17.87
2018-09-14T21:07:37.864Z,17.75
2018-09-14T21:10:06.836Z,17.74
2018-09-14T21:12:36.031Z,17.74
2018-09-14T21:15:05.055Z,17.71
2018-09-14T21:17:33.937Z,17.64
2018-09-14T21:20:02.877Z,17.57
2018-09-14T21:22:31.843Z,17.54
2018-09-14T21:25:00.700Z,17.54
2018-09-14T21:27:29.748Z,17.44
2018-09-14T21:29:58.748Z,17.41
2018-09-14T21:32:27.725Z,17.38
2018-09-14T21:34:56.779Z,17.33
2018-09-14T21:37:25.672Z,17.30
2018-09-14T21:39:54.704Z,17.25
2018-09-14T21:42:23.586Z,17.23
2018-09-14T21:44:52.569Z,17.29
2018-09-14T21:47:21.571Z,17.28
2018-09-14T21:49:50.483Z,17.24
2018-09-14T21:52:19.536Z,17.22
2018-09-14T21:54:48.539Z,17.19
2018-09-14T21:57:17.695Z,17.20
2018-09-14T21:59:46.688Z,17.12
2018-09-14T22:02:15.729Z,17.20
2018-09-14T22:04:44.702Z,17.24
2018-09-14T22:07:13.593Z,17.25
2018-09-14T22:09:42.490Z,17.26
2018-09-14T22:12:11.443Z,17.23
2018-09-14T22:14:40.424Z,17.13
2018-09-14T22:17:09.412Z,17.05
2018-09-14T22:19:38.310Z,16.99
2018-09-14T22:22:07.363Z,16.93
2018-09-14T22:24:36.299Z,16.86
2018-09-14T22:27:05.297Z,16.70
2018-09-14T22:29:34.229Z,16.62
2018-09-14T22:32:03.260Z,16.58
2018-09-14T22:34:32.292Z,16.63
2018-09-14T22:37:01.244Z,16.66
2018-09-14T22:39:30.169Z,16.72
2018-09-14T22:41:59.144Z,16.86
2018-09-14T22:44:28.073Z,16.83
2018-09-14T22:46:56.949Z,16.85
2018-09-14T22:49:25.834Z,16.87
2018-09-14T22:51:54.723Z,16.86
2018-09-14T22:54:23.677Z,16.88
2018-09-14T22:56:52.665Z,16.92
2018-09-14T22:59:21.551Z,16.93
2018-09-14T23:01:53.058Z,16.93
2018-09-14T23:04:22.359Z,16.93
2018-09-14T23:06:51.861Z,16.95
2018-09-14T23:09:20.796Z,16.94
2018-09-14T23:11:49.684Z,16.99
2018-09-14T23:14:18.687Z,17.04
2018-09-14T23:16:47.588Z,16.99
2018-09-14T23:19:16.483Z,16.98
2018-09-14T23:21:45.416Z,17.00
2018-09-14T23:24:14.300Z,16.99
2018-09-14T23:26:43.265Z,16.96
2018-09-14T23:29:12.164Z,17.04
2018-09-14T23:31:41.057Z,17.05
2018-09-14T23:34:10.012Z,16.95
2018-09-14T23:36:38.937Z,16.92
2018-09-14T23:39:09.888Z,17.08
2018-09-14T23:41:39.076Z,17.11
2018-09-14T23:44:08.066Z,17.06
2018-09-14T23:46:37.105Z,17.04
2018-09-14T23:49:06.388Z,17.05
2018-09-14T23:51:35.341Z,17.09
2018-09-14T23:54:04.260Z,17.18
2018-09-14T23:56:33.150Z,17.21
2018-09-14T23:59:02.039Z,17.38
